sensor_id;sensor_type;location;lat;lon;timestamp;P1;durP1;ratioP1;P2;durP2;ratioP2
10811;SDS011;5458;51.496;7.334;2022-09-13T00:00:19;3.33;;;2.47;;
10811;SDS011;5458;51.496;7.334;2022-09-13T00:02:44;3.30;;;2.53;;
10811;SDS011;5458;51.496;7.334;2022-09-13T00:05:10;3.42;;;2.70;;
10811;SDS011;5458;51.496;7.334;2022-09-13T00:07:36;2.40;;;2.20;;
10811;SDS011;5458;51.496;7.334;2022-09-13T00:10:01;2.88;;;2.28;;
10811;SDS011;5458;51.496;7.334;2022-09-13T00:12:27;5.45;;;2.80;;
10811;SDS011;5458;51.496;7.334;2022-09-13T00:14:53;3.85;;;2.75;;
10811;SDS011;5458;51.496;7.334;2022-09-13T00:17:18;2.58;;;2.38;;
10811;SDS011;5458;51.496;7.334;2022-09-13T00:19:45;3.40;;;2.60;;
10811;SDS011;5458;51.496;7.334;2022-09-13T00:22:11;2.83;;;2.63;;
10811;SDS011;5458;51.496;7.334;2022-09-13T00:24:36;3.22;;;2.70;;
10811;SDS011;5458;51.496;7.334;2022-09-13T00:27:02;3.28;;;2.80;;
10811;SDS011;5458;51.496;7.334;2022-09-13T00:29:28;3.05;;;2.40;;
10811;SDS011;5458;51.496;7.334;2022-09-13T00:31:53;2.53;;;2.33;;
10811;SDS011;5458;51.496;7.334;2022-09-13T00:34:19;3.13;;;2.67;;
10811;SDS011;5458;51.496;7.334;2022-09-13T00:36:44;3.25;;;2.95;;
10811;SDS011;5458;51.496;7.334;2022-09-13T00:39:10;2.80;;;2.60;;
10811;SDS011;5458;51.496;7.334;2022-09-13T00:41:36;2.70;;;2.50;;
10811;SDS011;5458;51.496;7.334;2022-09-13T00:44:02;2.83;;;2.63;;
10811;SDS011;5458;51.496;7.334;2022-09-13T00:49:23;6.72;;;2.85;;
10811;SDS011;5458;51.496;7.334;2022-09-13T00:51:57;3.92;;;2.58;;
10811;SDS011;5458;51.496;7.334;2022-09-13T00:54:28;2.50;;;2.10;;
10811;SDS011;5458;51.496;7.334;2022-09-13T00:56:59;2.45;;;2.25;;
10811;SDS011;5458;51.496;7.334;2022-09-13T00:59:27;2.67;;;2.47;;
10811;SDS011;5458;51.496;7.334;2022-09-13T01:01:57;2.42;;;2.22;;
10811;SDS011;5458;51.496;7.334;2022-09-13T01:04:27;3.35;;;2.95;;
10811;SDS011;5458;51.496;7.334;2022-09-13T01:06:55;3.00;;;2.40;;
10811;SDS011;5458;51.496;7.334;2022-09-13T01:09:24;2.75;;;2.55;;
10811;SDS011;5458;51.496;7.334;2022-09-13T01:11:52;3.78;;;2.15;;
10811;SDS011;5458;51.496;7.334;2022-09-13T01:14:28;3.35;;;2.42;;
10811;SDS011;5458;51.496;7.334;2022-09-13T01:16:55;2.60;;;2.00;;
10811;SDS011;5458;51.496;7.334;2022-09-13T01:19:22;2.72;;;2.50;;
10811;SDS011;5458;51.496;7.334;2022-09-13T01:30:23;3.08;;;2.20;;
10811;SDS011;5458;51.496;7.334;2022-09-13T01:43:24;3.97;;;2.70;;
10811;SDS011;5458;51.496;7.334;2022-09-13T01:48:54;4.07;;;2.60;;
10811;SDS011;5458;51.496;7.334;2022-09-13T01:51:42;2.95;;;2.63;;
10811;SDS011;5458;51.496;7.334;2022-09-13T01:54:15;2.80;;;2.60;;
10811;SDS011;5458;51.496;7.334;2022-09-13T01:57:02;3.08;;;2.83;;
10811;SDS011;5458;51.496;7.334;2022-09-13T02:04:50;3.65;;;2.53;;
10811;SDS011;5458;51.496;7.334;2022-09-13T02:07:20;3.05;;;2.22;;
10811;SDS011;5458;51.496;7.334;2022-09-13T02:09:56;2.78;;;2.53;;
10811;SDS011;5458;51.496;7.334;2022-09-13T02:12:26;3.17;;;2.60;;
10811;SDS011;5458;51.496;7.334;2022-09-13T02:14:56;3.63;;;2.17;;
10811;SDS011;5458;51.496;7.334;2022-09-13T02:17:28;2.65;;;2.45;;
10811;SDS011;5458;51.496;7.334;2022-09-13T02:20:01;2.30;;;2.00;;
10811;SDS011;5458;51.496;7.334;2022-09-13T02:22:33;2.38;;;2.15;;
10811;SDS011;5458;51.496;7.334;2022-09-13T02:25:11;2.42;;;2.33;;
10811;SDS011;5458;51.496;7.334;2022-09-13T02:27:40;2.38;;;2.17;;
10811;SDS011;5458;51.496;7.334;2022-09-13T02:30:13;2.67;;;2.35;;
10811;SDS011;5458;51.496;7.334;2022-09-13T02:32:44;3.03;;;2.13;;
10811;SDS011;5458;51.496;7.334;2022-09-13T02:35:26;2.90;;;1.80;;
10811;SDS011;5458;51.496;7.334;2022-09-13T02:38:08;2.30;;;2.10;;
10811;SDS011;5458;51.496;7.334;2022-09-13T02:40:41;2.60;;;2.40;;
10811;SDS011;5458;51.496;7.334;2022-09-13T02:43:15;3.63;;;2.15;;
10811;SDS011;5458;51.496;7.334;2022-09-13T02:45:51;1.98;;;1.77;;
10811;SDS011;5458;51.496;7.334;2022-09-13T02:51:37;2.25;;;2.05;;
10811;SDS011;5458;51.496;7.334;2022-09-13T02:59:33;1.70;;;1.60;;
10811;SDS011;5458;51.496;7.334;2022-09-13T03:04:29;2.78;;;2.25;;
10811;SDS011;5458;51.496;7.334;2022-09-13T03:06:54;3.95;;;2.10;;
10811;SDS011;5458;51.496;7.334;2022-09-13T03:09:20;2.83;;;2.50;;
10811;SDS011;5458;51.496;7.334;2022-09-13T03:17:40;2.13;;;2.00;;
10811;SDS011;5458;51.496;7.334;2022-09-13T03:28:54;2.40;;;2.10;;
10811;SDS011;5458;51.496;7.334;2022-09-13T03:31:52;2.25;;;1.83;;
10811;SDS011;5458;51.496;7.334;2022-09-13T03:38:00;2.63;;;1.73;;
10811;SDS011;5458;51.496;7.334;2022-09-13T03:40:44;5.43;;;2.25;;
10811;SDS011;5458;51.496;7.334;2022-09-13T03:45:53;2.20;;;2.00;;
10811;SDS011;5458;51.496;7.334;2022-09-13T03:48:22;2.67;;;1.90;;
10811;SDS011;5458;51.496;7.334;2022-09-13T03:50:48;2.97;;;2.20;;
10811;SDS011;5458;51.496;7.334;2022-09-13T03:53:17;3.30;;;2.10;;
10811;SDS011;5458;51.496;7.334;2022-09-13T03:55:46;2.88;;;2.08;;
10811;SDS011;5458;51.496;7.334;2022-09-13T03:58:13;2.35;;;2.17;;
10811;SDS011;5458;51.496;7.334;2022-09-13T04:00:40;2.75;;;1.98;;
10811;SDS011;5458;51.496;7.334;2022-09-13T04:03:07;2.55;;;2.38;;
10811;SDS011;5458;51.496;7.334;2022-09-13T04:05:34;4.40;;;2.22;;
10811;SDS011;5458;51.496;7.334;2022-09-13T04:08:00;2.50;;;2.22;;
10811;SDS011;5458;51.496;7.334;2022-09-13T04:10:26;3.65;;;2.83;;
10811;SDS011;5458;51.496;7.334;2022-09-13T04:12:53;2.47;;;2.28;;
10811;SDS011;5458;51.496;7.334;2022-09-13T04:15:19;2.90;;;2.22;;
10811;SDS011;5458;51.496;7.334;2022-09-13T04:17:45;2.47;;;2.28;;
10811;SDS011;5458;51.496;7.334;2022-09-13T04:20:12;2.92;;;2.45;;
10811;SDS011;5458;51.496;7.334;2022-09-13T04:22:38;4.97;;;2.65;;
10811;SDS011;5458;51.496;7.334;2022-09-13T04:25:03;2.08;;;1.90;;
10811;SDS011;5458;51.496;7.334;2022-09-13T04:27:30;2.65;;;2.38;;
10811;SDS011;5458;51.496;7.334;2022-09-13T04:29:56;2.70;;;1.95;;
10811;SDS011;5458;51.496;7.334;2022-09-13T04:32:21;2.35;;;2.05;;
10811;SDS011;5458;51.496;7.334;2022-09-13T04:34:47;2.60;;;2.40;;
10811;SDS011;5458;51.496;7.334;2022-09-13T04:37:13;4.22;;;2.40;;
10811;SDS011;5458;51.496;7.334;2022-09-13T04:39:38;2.67;;;2.10;;
10811;SDS011;5458;51.496;7.334;2022-09-13T04:42:04;2.15;;;1.95;;
10811;SDS011;5458;51.496;7.334;2022-09-13T04:44:31;2.83;;;2.40;;
10811;SDS011;5458;51.496;7.334;2022-09-13T04:46:57;5.28;;;2.55;;
10811;SDS011;5458;51.496;7.334;2022-09-13T04:49:24;4.32;;;2.30;;
10811;SDS011;5458;51.496;7.334;2022-09-13T04:51:49;4.32;;;2.10;;
10811;SDS011;5458;51.496;7.334;2022-09-13T04:54:15;2.30;;;2.10;;
10811;SDS011;5458;51.496;7.334;2022-09-13T04:56:41;6.65;;;2.88;;
10811;SDS011;5458;51.496;7.334;2022-09-13T04:59:07;2.80;;;2.60;;
10811;SDS011;5458;51.496;7.334;2022-09-13T05:01:34;5.38;;;2.33;;
10811;SDS011;5458;51.496;7.334;2022-09-13T05:04:01;4.63;;;2.60;;
10811;SDS011;5458;51.496;7.334;2022-09-13T05:06:27;4.10;;;2.42;;
10811;SDS011;5458;51.496;7.334;2022-09-13T05:08:54;3.05;;;2.30;;
10811;SDS011;5458;51.496;7.334;2022-09-13T05:11:21;2.97;;;2.47;;
10811;SDS011;5458;51.496;7.334;2022-09-13T05:13:52;4.80;;;2.42;;
10811;SDS011;5458;51.496;7.334;2022-09-13T05:16:23;3.20;;;2.00;;
10811;SDS011;5458;51.496;7.334;2022-09-13T05:18:50;4.38;;;2.63;;
10811;SDS011;5458;51.496;7.334;2022-09-13T05:21:16;2.97;;;2.70;;
10811;SDS011;5458;51.496;7.334;2022-09-13T05:23:43;3.47;;;2.92;;
10811;SDS011;5458;51.496;7.334;2022-09-13T05:26:09;3.90;;;2.78;;
10811;SDS011;5458;51.496;7.334;2022-09-13T05:28:35;12.60;;;2.78;;
10811;SDS011;5458;51.496;7.334;2022-09-13T05:31:03;3.47;;;2.65;;
10811;SDS011;5458;51.496;7.334;2022-09-13T05:33:29;2.50;;;2.05;;
10811;SDS011;5458;51.496;7.334;2022-09-13T05:35:57;3.33;;;2.00;;
10811;SDS011;5458;51.496;7.334;2022-09-13T05:38:22;2.40;;;2.03;;
10811;SDS011;5458;51.496;7.334;2022-09-13T05:40:52;3.92;;;2.05;;
10811;SDS011;5458;51.496;7.334;2022-09-13T05:43:23;5.13;;;2.75;;
10811;SDS011;5458;51.496;7.334;2022-09-13T05:48:31;4.20;;;2.65;;
10811;SDS011;5458;51.496;7.334;2022-09-13T05:53:35;3.25;;;2.40;;
10811;SDS011;5458;51.496;7.334;2022-09-13T05:56:05;6.50;;;3.78;;
10811;SDS011;5458;51.496;7.334;2022-09-13T05:58:39;10.07;;;3.90;;
10811;SDS011;5458;51.496;7.334;2022-09-13T06:01:07;9.57;;;4.18;;
10811;SDS011;5458;51.496;7.334;2022-09-13T06:03:33;8.40;;;3.00;;
10811;SDS011;5458;51.496;7.334;2022-09-13T06:05:59;3.90;;;3.30;;
10811;SDS011;5458;51.496;7.334;2022-09-13T06:08:25;6.43;;;3.85;;
10811;SDS011;5458;51.496;7.334;2022-09-13T06:10:56;8.15;;;3.67;;
10811;SDS011;5458;51.496;7.334;2022-09-13T06:13:23;10.43;;;3.90;;
10811;SDS011;5458;51.496;7.334;2022-09-13T06:15:50;9.50;;;4.15;;
10811;SDS011;5458;51.496;7.334;2022-09-13T06:18:16;10.25;;;4.70;;
10811;SDS011;5458;51.496;7.334;2022-09-13T06:20:42;11.70;;;4.90;;
10811;SDS011;5458;51.496;7.334;2022-09-13T06:23:08;4.65;;;3.30;;
10811;SDS011;5458;51.496;7.334;2022-09-13T06:25:33;5.47;;;4.10;;
10811;SDS011;5458;51.496;7.334;2022-09-13T06:27:59;6.43;;;3.60;;
10811;SDS011;5458;51.496;7.334;2022-09-13T06:30:24;5.88;;;3.28;;
10811;SDS011;5458;51.496;7.334;2022-09-13T06:32:50;9.13;;;3.83;;
10811;SDS011;5458;51.496;7.334;2022-09-13T06:35:15;6.38;;;3.90;;
10811;SDS011;5458;51.496;7.334;2022-09-13T06:37:41;4.60;;;3.30;;
10811;SDS011;5458;51.496;7.334;2022-09-13T06:40:08;5.68;;;3.33;;
10811;SDS011;5458;51.496;7.334;2022-09-13T06:42:34;4.63;;;2.95;;
10811;SDS011;5458;51.496;7.334;2022-09-13T06:45:00;3.50;;;2.63;;
10811;SDS011;5458;51.496;7.334;2022-09-13T06:47:26;4.43;;;3.30;;
10811;SDS011;5458;51.496;7.334;2022-09-13T06:49:52;5.18;;;2.95;;
10811;SDS011;5458;51.496;7.334;2022-09-13T06:52:17;4.55;;;3.22;;
10811;SDS011;5458;51.496;7.334;2022-09-13T06:54:43;4.55;;;2.80;;
10811;SDS011;5458;51.496;7.334;2022-09-13T06:57:08;2.80;;;2.40;;
10811;SDS011;5458;51.496;7.334;2022-09-13T06:59:34;4.55;;;3.30;;
10811;SDS011;5458;51.496;7.334;2022-09-13T07:02:00;4.85;;;2.80;;
10811;SDS011;5458;51.496;7.334;2022-09-13T07:04:25;5.20;;;2.75;;
10811;SDS011;5458;51.496;7.334;2022-09-13T07:06:55;5.57;;;2.80;;
10811;SDS011;5458;51.496;7.334;2022-09-13T07:09:22;4.25;;;2.95;;
10811;SDS011;5458;51.496;7.334;2022-09-13T07:11:49;3.65;;;3.10;;
10811;SDS011;5458;51.496;7.334;2022-09-13T07:14:17;3.85;;;2.95;;
10811;SDS011;5458;51.496;7.334;2022-09-13T07:16:44;3.25;;;2.80;;
10811;SDS011;5458;51.496;7.334;2022-09-13T07:19:15;3.03;;;2.25;;
10811;SDS011;5458;51.496;7.334;2022-09-13T07:21:42;6.40;;;2.90;;
10811;SDS011;5458;51.496;7.334;2022-09-13T07:24:08;4.22;;;3.08;;
10811;SDS011;5458;51.496;7.334;2022-09-13T07:26:34;3.30;;;3.00;;
10811;SDS011;5458;51.496;7.334;2022-09-13T07:29:01;5.20;;;2.63;;
10811;SDS011;5458;51.496;7.334;2022-09-13T07:31:29;5.53;;;2.80;;
10811;SDS011;5458;51.496;7.334;2022-09-13T07:33:57;4.75;;;3.17;;
10811;SDS011;5458;51.496;7.334;2022-09-13T07:36:28;3.63;;;2.80;;
10811;SDS011;5458;51.496;7.334;2022-09-13T07:38:55;5.35;;;2.40;;
10811;SDS011;5458;51.496;7.334;2022-09-13T07:41:21;3.03;;;2.22;;
10811;SDS011;5458;51.496;7.334;2022-09-13T07:43:49;3.22;;;2.22;;
10811;SDS011;5458;51.496;7.334;2022-09-13T07:46:16;4.70;;;2.60;;
10811;SDS011;5458;51.496;7.334;2022-09-13T07:48:46;4.57;;;2.40;;
10811;SDS011;5458;51.496;7.334;2022-09-13T07:51:17;4.90;;;2.67;;
10811;SDS011;5458;51.496;7.334;2022-09-13T07:53:45;5.18;;;2.63;;
10811;SDS011;5458;51.496;7.334;2022-09-13T07:56:14;5.20;;;2.03;;
10811;SDS011;5458;51.496;7.334;2022-09-13T07:58:42;4.35;;;2.75;;
10811;SDS011;5458;51.496;7.334;2022-09-13T08:01:15;2.97;;;2.38;;
10811;SDS011;5458;51.496;7.334;2022-09-13T08:04:05;5.13;;;2.30;;
10811;SDS011;5458;51.496;7.334;2022-09-13T08:06:33;3.03;;;2.35;;
10811;SDS011;5458;51.496;7.334;2022-09-13T08:08:59;3.55;;;2.45;;
10811;SDS011;5458;51.496;7.334;2022-09-13T08:11:30;7.32;;;3.35;;
10811;SDS011;5458;51.496;7.334;2022-09-13T08:13:58;2.38;;;2.13;;
10811;SDS011;5458;51.496;7.334;2022-09-13T08:16:25;6.78;;;2.78;;
10811;SDS011;5458;51.496;7.334;2022-09-13T08:18:52;4.88;;;3.00;;
10811;SDS011;5458;51.496;7.334;2022-09-13T08:21:20;3.50;;;2.17;;
10811;SDS011;5458;51.496;7.334;2022-09-13T08:23:46;5.80;;;2.50;;
10811;SDS011;5458;51.496;7.334;2022-09-13T08:26:12;5.72;;;2.17;;
10811;SDS011;5458;51.496;7.334;2022-09-13T08:28:37;3.72;;;2.53;;
10811;SDS011;5458;51.496;7.334;2022-09-13T08:31:05;3.65;;;2.78;;
10811;SDS011;5458;51.496;7.334;2022-09-13T08:33:32;4.45;;;3.05;;
10811;SDS011;5458;51.496;7.334;2022-09-13T08:35:59;4.15;;;2.42;;
10811;SDS011;5458;51.496;7.334;2022-09-13T08:38:24;5.22;;;2.60;;
10811;SDS011;5458;51.496;7.334;2022-09-13T08:40:52;4.03;;;2.88;;
10811;SDS011;5458;51.496;7.334;2022-09-13T08:43:23;3.67;;;2.22;;
10811;SDS011;5458;51.496;7.334;2022-09-13T08:46:11;3.38;;;2.92;;
10811;SDS011;5458;51.496;7.334;2022-09-13T08:48:48;3.30;;;2.72;;
10811;SDS011;5458;51.496;7.334;2022-09-13T08:51:24;4.53;;;2.55;;
10811;SDS011;5458;51.496;7.334;2022-09-13T08:53:51;6.65;;;2.85;;
10811;SDS011;5458;51.496;7.334;2022-09-13T08:56:40;5.85;;;3.22;;
10811;SDS011;5458;51.496;7.334;2022-09-13T09:04:45;5.25;;;3.03;;
10811;SDS011;5458;51.496;7.334;2022-09-13T09:07:26;5.30;;;3.63;;
10811;SDS011;5458;51.496;7.334;2022-09-13T09:09:56;3.97;;;2.80;;
10811;SDS011;5458;51.496;7.334;2022-09-13T09:12:40;5.40;;;2.95;;
10811;SDS011;5458;51.496;7.334;2022-09-13T09:15:23;3.67;;;2.60;;
10811;SDS011;5458;51.496;7.334;2022-09-13T09:23:19;4.38;;;3.30;;
10811;SDS011;5458;51.496;7.334;2022-09-13T09:25:54;5.07;;;3.17;;
10811;SDS011;5458;51.496;7.334;2022-09-13T09:28:34;5.50;;;2.88;;
10811;SDS011;5458;51.496;7.334;2022-09-13T09:31:04;4.88;;;3.72;;
10811;SDS011;5458;51.496;7.334;2022-09-13T09:36:22;7.20;;;3.00;;
10811;SDS011;5458;51.496;7.334;2022-09-13T09:39:09;5.90;;;3.35;;
10811;SDS011;5458;51.496;7.334;2022-09-13T09:41:37;6.28;;;3.38;;
10811;SDS011;5458;51.496;7.334;2022-09-13T09:46:55;5.40;;;3.65;;
10811;SDS011;5458;51.496;7.334;2022-09-13T09:49:44;4.93;;;2.92;;
10811;SDS011;5458;51.496;7.334;2022-09-13T09:52:42;4.60;;;3.00;;
10811;SDS011;5458;51.496;7.334;2022-09-13T09:55:11;5.72;;;3.42;;
10811;SDS011;5458;51.496;7.334;2022-09-13T09:57:48;5.03;;;3.67;;
10811;SDS011;5458;51.496;7.334;2022-09-13T10:00:16;6.40;;;4.05;;
10811;SDS011;5458;51.496;7.334;2022-09-13T10:02:42;4.97;;;3.85;;
10811;SDS011;5458;51.496;7.334;2022-09-13T10:05:08;5.40;;;3.70;;
10811;SDS011;5458;51.496;7.334;2022-09-13T10:07:36;4.88;;;4.25;;
10811;SDS011;5458;51.496;7.334;2022-09-13T10:10:04;7.88;;;4.35;;
10811;SDS011;5458;51.496;7.334;2022-09-13T10:12:50;6.90;;;4.32;;
10811;SDS011;5458;51.496;7.334;2022-09-13T10:15:20;7.28;;;3.10;;
10811;SDS011;5458;51.496;7.334;2022-09-13T10:20:42;4.88;;;4.32;;
10811;SDS011;5458;51.496;7.334;2022-09-13T10:23:24;5.32;;;3.55;;
10811;SDS011;5458;51.496;7.334;2022-09-13T10:25:55;5.40;;;3.45;;
10811;SDS011;5458;51.496;7.334;2022-09-13T10:31:27;5.15;;;3.38;;
10811;SDS011;5458;51.496;7.334;2022-09-13T10:34:02;5.95;;;3.05;;
10811;SDS011;5458;51.496;7.334;2022-09-13T10:36:40;5.30;;;3.10;;
10811;SDS011;5458;51.496;7.334;2022-09-13T10:39:16;4.68;;;3.05;;
10811;SDS011;5458;51.496;7.334;2022-09-13T10:42:17;4.60;;;3.13;;
10811;SDS011;5458;51.496;7.334;2022-09-13T10:44:42;4.28;;;3.00;;
10811;SDS011;5458;51.496;7.334;2022-09-13T10:47:11;5.05;;;3.55;;
10811;SDS011;5458;51.496;7.334;2022-09-13T10:49:47;4.75;;;3.38;;
10811;SDS011;5458;51.496;7.334;2022-09-13T11:00:10;6.50;;;3.95;;
10811;SDS011;5458;51.496;7.334;2022-09-13T11:05:23;11.55;;;3.90;;
10811;SDS011;5458;51.496;7.334;2022-09-13T11:08:15;4.07;;;3.10;;
10811;SDS011;5458;51.496;7.334;2022-09-13T11:11:26;4.97;;;3.13;;
10811;SDS011;5458;51.496;7.334;2022-09-13T11:31:34;5.47;;;3.22;;
10811;SDS011;5458;51.496;7.334;2022-09-13T11:37:11;3.78;;;2.80;;
10811;SDS011;5458;51.496;7.334;2022-09-13T11:56:37;6.32;;;3.33;;
10811;SDS011;5458;51.496;7.334;2022-09-13T11:59:09;6.93;;;3.88;;
10811;SDS011;5458;51.496;7.334;2022-09-13T12:01:53;9.57;;;4.28;;
10811;SDS011;5458;51.496;7.334;2022-09-13T12:04:29;5.25;;;3.63;;
10811;SDS011;5458;51.496;7.334;2022-09-13T12:07:03;6.07;;;3.25;;
10811;SDS011;5458;51.496;7.334;2022-09-13T12:09:51;6.68;;;4.05;;
10811;SDS011;5458;51.496;7.334;2022-09-13T12:12:24;7.57;;;5.22;;
10811;SDS011;5458;51.496;7.334;2022-09-13T12:14:59;5.10;;;3.60;;
10811;SDS011;5458;51.496;7.334;2022-09-13T12:20:19;6.65;;;3.30;;
10811;SDS011;5458;51.496;7.334;2022-09-13T12:22:48;5.88;;;3.25;;
10811;SDS011;5458;51.496;7.334;2022-09-13T12:25:22;4.65;;;2.90;;
10811;SDS011;5458;51.496;7.334;2022-09-13T12:28:02;5.97;;;4.25;;
10811;SDS011;5458;51.496;7.334;2022-09-13T12:30:41;4.78;;;3.60;;
10811;SDS011;5458;51.496;7.334;2022-09-13T12:33:13;7.22;;;3.33;;
10811;SDS011;5458;51.496;7.334;2022-09-13T12:36:04;7.10;;;5.63;;
10811;SDS011;5458;51.496;7.334;2022-09-13T12:38:42;7.43;;;4.00;;
10811;SDS011;5458;51.496;7.334;2022-09-13T12:41:44;5.10;;;3.60;;
10811;SDS011;5458;51.496;7.334;2022-09-13T12:50:30;4.88;;;3.22;;
10811;SDS011;5458;51.496;7.334;2022-09-13T12:53:26;6.00;;;4.20;;
10811;SDS011;5458;51.496;7.334;2022-09-13T13:01:43;7.57;;;4.22;;
10811;SDS011;5458;51.496;7.334;2022-09-13T13:06:50;7.50;;;5.68;;
10811;SDS011;5458;51.496;7.334;2022-09-13T13:09:39;6.95;;;4.97;;
10811;SDS011;5458;51.496;7.334;2022-09-13T13:12:24;6.43;;;5.55;;
10811;SDS011;5458;51.496;7.334;2022-09-13T13:15:04;7.63;;;4.68;;
10811;SDS011;5458;51.496;7.334;2022-09-13T13:29:21;5.97;;;5.32;;
10811;SDS011;5458;51.496;7.334;2022-09-13T13:34:25;7.40;;;4.55;;
10811;SDS011;5458;51.496;7.334;2022-09-13T13:37:05;7.38;;;5.55;;
10811;SDS011;5458;51.496;7.334;2022-09-13T13:40:10;6.55;;;5.80;;
10811;SDS011;5458;51.496;7.334;2022-09-13T13:42:44;8.73;;;5.45;;
10811;SDS011;5458;51.496;7.334;2022-09-13T13:45:14;6.68;;;5.45;;
10811;SDS011;5458;51.496;7.334;2022-09-13T13:48:05;6.82;;;6.13;;
10811;SDS011;5458;51.496;7.334;2022-09-13T13:50:53;7.25;;;5.57;;
10811;SDS011;5458;51.496;7.334;2022-09-13T13:53:37;7.43;;;6.18;;
10811;SDS011;5458;51.496;7.334;2022-09-13T13:59:02;7.35;;;6.50;;
10811;SDS011;5458;51.496;7.334;2022-09-13T14:01:33;6.50;;;5.90;;
10811;SDS011;5458;51.496;7.334;2022-09-13T14:09:25;7.63;;;5.63;;
10811;SDS011;5458;51.496;7.334;2022-09-13T14:14:50;6.03;;;5.38;;
10811;SDS011;5458;51.496;7.334;2022-09-13T14:20:20;8.60;;;5.70;;
10811;SDS011;5458;51.496;7.334;2022-09-13T14:22:46;6.43;;;5.82;;
10811;SDS011;5458;51.496;7.334;2022-09-13T14:27:43;7.63;;;5.95;;
10811;SDS011;5458;51.496;7.334;2022-09-13T14:30:17;6.00;;;5.18;;
10811;SDS011;5458;51.496;7.334;2022-09-13T14:32:44;7.53;;;6.07;;
10811;SDS011;5458;51.496;7.334;2022-09-13T14:35:34;6.93;;;5.47;;
10811;SDS011;5458;51.496;7.334;2022-09-13T14:40:46;7.65;;;5.15;;
10811;SDS011;5458;51.496;7.334;2022-09-13T14:43:14;7.75;;;6.75;;
10811;SDS011;5458;51.496;7.334;2022-09-13T14:45:41;9.30;;;7.25;;
10811;SDS011;5458;51.496;7.334;2022-09-13T14:50:47;7.07;;;4.95;;
10811;SDS011;5458;51.496;7.334;2022-09-13T14:53:19;5.28;;;4.60;;
10811;SDS011;5458;51.496;7.334;2022-09-13T14:55:49;5.43;;;4.82;;
10811;SDS011;5458;51.496;7.334;2022-09-13T14:58:25;8.40;;;5.65;;
10811;SDS011;5458;51.496;7.334;2022-09-13T15:01:08;7.65;;;6.35;;
10811;SDS011;5458;51.496;7.334;2022-09-13T15:03:36;6.60;;;5.30;;
10811;SDS011;5458;51.496;7.334;2022-09-13T15:06:06;7.05;;;5.60;;
10811;SDS011;5458;51.496;7.334;2022-09-13T15:10:57;7.78;;;6.95;;
10811;SDS011;5458;51.496;7.334;2022-09-13T15:13:25;6.65;;;5.90;;
10811;SDS011;5458;51.496;7.334;2022-09-13T15:15:51;7.07;;;5.63;;
10811;SDS011;5458;51.496;7.334;2022-09-13T15:23:26;6.10;;;5.47;;
10811;SDS011;5458;51.496;7.334;2022-09-13T15:26:34;6.30;;;5.53;;
10811;SDS011;5458;51.496;7.334;2022-09-13T15:28:52;5.65;;;5.15;;
10811;SDS011;5458;51.496;7.334;2022-09-13T15:34:10;7.38;;;5.78;;
10811;SDS011;5458;51.496;7.334;2022-09-13T15:36:36;8.05;;;5.47;;
10811;SDS011;5458;51.496;7.334;2022-09-13T15:41:42;8.75;;;4.88;;
10811;SDS011;5458;51.496;7.334;2022-09-13T15:44:19;8.70;;;5.25;;
10811;SDS011;5458;51.496;7.334;2022-09-13T15:46:53;7.35;;;6.38;;
10811;SDS011;5458;51.496;7.334;2022-09-13T15:49:20;8.27;;;5.68;;
10811;SDS011;5458;51.496;7.334;2022-09-13T15:51:52;7.18;;;6.47;;
10811;SDS011;5458;51.496;7.334;2022-09-13T15:54:20;6.82;;;5.43;;
10811;SDS011;5458;51.496;7.334;2022-09-13T15:56:47;5.90;;;4.97;;
10811;SDS011;5458;51.496;7.334;2022-09-13T15:59:17;8.82;;;5.38;;
10811;SDS011;5458;51.496;7.334;2022-09-13T16:01:44;6.90;;;5.30;;
10811;SDS011;5458;51.496;7.334;2022-09-13T16:04:12;7.55;;;5.25;;
10811;SDS011;5458;51.496;7.334;2022-09-13T16:06:37;7.47;;;5.03;;
10811;SDS011;5458;51.496;7.334;2022-09-13T16:09:22;6.78;;;5.30;;
10811;SDS011;5458;51.496;7.334;2022-09-13T16:11:49;7.82;;;5.85;;
10811;SDS011;5458;51.496;7.334;2022-09-13T16:14:16;8.85;;;4.75;;
10811;SDS011;5458;51.496;7.334;2022-09-13T16:16:42;5.72;;;4.65;;
10811;SDS011;5458;51.496;7.334;2022-09-13T16:19:15;6.78;;;5.35;;
10811;SDS011;5458;51.496;7.334;2022-09-13T16:21:45;9.60;;;6.03;;
10811;SDS011;5458;51.496;7.334;2022-09-13T16:24:11;8.45;;;5.78;;
10811;SDS011;5458;51.496;7.334;2022-09-13T16:26:37;6.90;;;5.03;;
10811;SDS011;5458;51.496;7.334;2022-09-13T16:29:04;8.80;;;5.93;;
10811;SDS011;5458;51.496;7.334;2022-09-13T16:31:29;6.38;;;4.20;;
10811;SDS011;5458;51.496;7.334;2022-09-13T16:33:55;5.45;;;4.88;;
10811;SDS011;5458;51.496;7.334;2022-09-13T16:36:21;5.32;;;4.72;;
10811;SDS011;5458;51.496;7.334;2022-09-13T16:38:46;6.85;;;5.22;;
10811;SDS011;5458;51.496;7.334;2022-09-13T16:41:12;6.55;;;4.60;;
10811;SDS011;5458;51.496;7.334;2022-09-13T16:43:38;6.28;;;4.40;;
10811;SDS011;5458;51.496;7.334;2022-09-13T16:46:07;5.22;;;4.57;;
10811;SDS011;5458;51.496;7.334;2022-09-13T16:48:34;8.93;;;5.78;;
10811;SDS011;5458;51.496;7.334;2022-09-13T16:51:03;8.05;;;5.35;;
10811;SDS011;5458;51.496;7.334;2022-09-13T16:53:34;6.35;;;5.32;;
10811;SDS011;5458;51.496;7.334;2022-09-13T16:56:08;8.20;;;5.40;;
10811;SDS011;5458;51.496;7.334;2022-09-13T16:58:38;5.53;;;5.03;;
10811;SDS011;5458;51.496;7.334;2022-09-13T17:01:05;6.65;;;5.93;;
10811;SDS011;5458;51.496;7.334;2022-09-13T17:03:32;6.82;;;5.72;;
10811;SDS011;5458;51.496;7.334;2022-09-13T17:06:00;10.18;;;5.80;;
10811;SDS011;5458;51.496;7.334;2022-09-13T17:08:26;8.18;;;5.63;;
10811;SDS011;5458;51.496;7.334;2022-09-13T17:10:52;6.20;;;5.13;;
10811;SDS011;5458;51.496;7.334;2022-09-13T17:13:17;6.65;;;4.63;;
10811;SDS011;5458;51.496;7.334;2022-09-13T17:15:43;5.15;;;4.65;;
10811;SDS011;5458;51.496;7.334;2022-09-13T17:18:09;6.97;;;4.45;;
10811;SDS011;5458;51.496;7.334;2022-09-13T17:20:34;8.93;;;5.78;;
10811;SDS011;5458;51.496;7.334;2022-09-13T17:23:06;5.85;;;5.18;;
10811;SDS011;5458;51.496;7.334;2022-09-13T17:25:32;5.57;;;4.97;;
10811;SDS011;5458;51.496;7.334;2022-09-13T17:27:57;8.35;;;5.22;;
10811;SDS011;5458;51.496;7.334;2022-09-13T17:30:23;9.57;;;6.13;;
10811;SDS011;5458;51.496;7.334;2022-09-13T17:32:49;7.40;;;5.93;;
10811;SDS011;5458;51.496;7.334;2022-09-13T17:35:15;7.30;;;6.03;;
10811;SDS011;5458;51.496;7.334;2022-09-13T17:37:41;5.88;;;5.30;;
10811;SDS011;5458;51.496;7.334;2022-09-13T17:40:06;6.47;;;5.57;;
10811;SDS011;5458;51.496;7.334;2022-09-13T17:42:32;8.50;;;5.45;;
10811;SDS011;5458;51.496;7.334;2022-09-13T17:44:58;8.70;;;5.93;;
10811;SDS011;5458;51.496;7.334;2022-09-13T17:47:23;5.25;;;4.75;;
10811;SDS011;5458;51.496;7.334;2022-09-13T17:49:49;6.07;;;5.47;;
10811;SDS011;5458;51.496;7.334;2022-09-13T17:52:14;6.78;;;4.50;;
10811;SDS011;5458;51.496;7.334;2022-09-13T17:54:40;6.30;;;5.55;;
10811;SDS011;5458;51.496;7.334;2022-09-13T17:57:06;7.40;;;4.97;;
10811;SDS011;5458;51.496;7.334;2022-09-13T17:59:31;6.30;;;4.97;;
10811;SDS011;5458;51.496;7.334;2022-09-13T18:01:58;7.10;;;5.32;;
10811;SDS011;5458;51.496;7.334;2022-09-13T18:04:25;7.22;;;4.90;;
10811;SDS011;5458;51.496;7.334;2022-09-13T18:06:51;6.72;;;5.88;;
10811;SDS011;5458;51.496;7.334;2022-09-13T18:09:17;6.05;;;4.82;;
10811;SDS011;5458;51.496;7.334;2022-09-13T18:11:43;7.03;;;4.85;;
10811;SDS011;5458;51.496;7.334;2022-09-13T18:14:10;6.88;;;5.38;;
10811;SDS011;5458;51.496;7.334;2022-09-13T18:16:37;6.53;;;5.60;;
10811;SDS011;5458;51.496;7.334;2022-09-13T18:19:03;5.78;;;4.60;;
10811;SDS011;5458;51.496;7.334;2022-09-13T18:21:29;8.10;;;5.55;;
10811;SDS011;5458;51.496;7.334;2022-09-13T18:23:56;6.43;;;4.35;;
10811;SDS011;5458;51.496;7.334;2022-09-13T18:26:23;5.97;;;4.68;;
10811;SDS011;5458;51.496;7.334;2022-09-13T18:28:54;7.95;;;5.05;;
10811;SDS011;5458;51.496;7.334;2022-09-13T18:31:22;5.88;;;4.30;;
10811;SDS011;5458;51.496;7.334;2022-09-13T18:33:52;4.90;;;3.85;;
10811;SDS011;5458;51.496;7.334;2022-09-13T18:36:19;5.05;;;3.97;;
10811;SDS011;5458;51.496;7.334;2022-09-13T18:38:46;5.22;;;4.72;;
10811;SDS011;5458;51.496;7.334;2022-09-13T18:41:17;5.82;;;4.10;;
10811;SDS011;5458;51.496;7.334;2022-09-13T18:43:49;8.75;;;5.53;;